sensor_id;sensor_type;location;lat;lon;timestamp;P1;durP1;ratioP1;P2;durP2;ratioP2
55718;SDS011;41623;46.104;19.656;2022-12-18T00:02:15;18.85;;;5.80;;
55718;SDS011;41623;46.104;19.656;2022-12-18T00:04:42;14.70;;;6.53;;
55718;SDS011;41623;46.104;19.656;2022-12-18T00:07:08;10.98;;;4.53;;
55718;SDS011;41623;46.104;19.656;2022-12-18T00:09:34;12.02;;;5.55;;
55718;SDS011;41623;46.104;19.656;2022-12-18T00:12:00;8.73;;;4.90;;
55718;SDS011;41623;46.104;19.656;2022-12-18T00:14:26;14.15;;;5.15;;
55718;SDS011;41623;46.104;19.656;2022-12-18T00:16:52;8.52;;;5.45;;
55718;SDS011;41623;46.104;19.656;2022-12-18T00:19:18;13.30;;;5.55;;
55718;SDS011;41623;46.104;19.656;2022-12-18T00:21:44;14.52;;;5.20;;
55718;SDS011;41623;46.104;19.656;2022-12-18T00:24:10;13.23;;;5.30;;
55718;SDS011;41623;46.104;19.656;2022-12-18T00:26:37;12.60;;;5.40;;
55718;SDS011;41623;46.104;19.656;2022-12-18T00:29:05;16.15;;;5.85;;
55718;SDS011;41623;46.104;19.656;2022-12-18T00:31:32;10.80;;;5.50;;
55718;SDS011;41623;46.104;19.656;2022-12-18T00:33:58;8.48;;;5.32;;
55718;SDS011;41623;46.104;19.656;2022-12-18T00:36:25;10.52;;;6.68;;
55718;SDS011;41623;46.104;19.656;2022-12-18T00:38:52;7.82;;;4.38;;
55718;SDS011;41623;46.104;19.656;2022-12-18T00:41:19;14.52;;;4.53;;
55718;SDS011;41623;46.104;19.656;2022-12-18T00:44:04;12.52;;;5.15;;
55718;SDS011;41623;46.104;19.656;2022-12-18T00:46:31;12.93;;;6.40;;
55718;SDS011;41623;46.104;19.656;2022-12-18T00:48:57;10.57;;;5.47;;
55718;SDS011;41623;46.104;19.656;2022-12-18T00:51:24;13.10;;;4.93;;
55718;SDS011;41623;46.104;19.656;2022-12-18T00:53:50;13.88;;;6.57;;
55718;SDS011;41623;46.104;19.656;2022-12-18T00:56:16;15.93;;;7.07;;
55718;SDS011;41623;46.104;19.656;2022-12-18T00:58:42;13.15;;;5.43;;
55718;SDS011;41623;46.104;19.656;2022-12-18T01:01:08;20.67;;;7.38;;
55718;SDS011;41623;46.104;19.656;2022-12-18T01:03:34;11.27;;;5.43;;
55718;SDS011;41623;46.104;19.656;2022-12-18T01:06:10;15.55;;;6.40;;
55718;SDS011;41623;46.104;19.656;2022-12-18T01:08:36;12.77;;;5.50;;
55718;SDS011;41623;46.104;19.656;2022-12-18T01:11:13;12.23;;;5.07;;
55718;SDS011;41623;46.104;19.656;2022-12-18T01:13:39;13.50;;;6.57;;
55718;SDS011;41623;46.104;19.656;2022-12-18T01:16:05;11.25;;;5.80;;
55718;SDS011;41623;46.104;19.656;2022-12-18T01:18:32;6.88;;;4.85;;
55718;SDS011;41623;46.104;19.656;2022-12-18T01:20:58;10.30;;;5.32;;
55718;SDS011;41623;46.104;19.656;2022-12-18T01:23:24;12.98;;;6.00;;
55718;SDS011;41623;46.104;19.656;2022-12-18T01:25:50;17.25;;;7.60;;
55718;SDS011;41623;46.104;19.656;2022-12-18T01:28:16;5.28;;;3.90;;
55718;SDS011;41623;46.104;19.656;2022-12-18T01:30:42;9.35;;;4.45;;
55718;SDS011;41623;46.104;19.656;2022-12-18T01:33:08;10.57;;;5.40;;
55718;SDS011;41623;46.104;19.656;2022-12-18T01:35:39;14.43;;;6.07;;
55718;SDS011;41623;46.104;19.656;2022-12-18T01:38:05;10.65;;;5.93;;
55718;SDS011;41623;46.104;19.656;2022-12-18T01:40:31;16.95;;;6.03;;
55718;SDS011;41623;46.104;19.656;2022-12-18T01:42:57;11.02;;;5.50;;
55718;SDS011;41623;46.104;19.656;2022-12-18T01:45:27;15.38;;;6.80;;
55718;SDS011;41623;46.104;19.656;2022-12-18T01:47:58;12.43;;;5.57;;
55718;SDS011;41623;46.104;19.656;2022-12-18T01:50:25;12.45;;;5.65;;
55718;SDS011;41623;46.104;19.656;2022-12-18T01:53:03;14.27;;;5.13;;
55718;SDS011;41623;46.104;19.656;2022-12-18T01:55:32;11.55;;;5.30;;
55718;SDS011;41623;46.104;19.656;2022-12-18T01:58:01;13.73;;;6.32;;
55718;SDS011;41623;46.104;19.656;2022-12-18T02:00:28;13.43;;;5.95;;
55718;SDS011;41623;46.104;19.656;2022-12-18T02:02:54;12.88;;;6.78;;
55718;SDS011;41623;46.104;19.656;2022-12-18T02:05:29;15.65;;;6.40;;
55718;SDS011;41623;46.104;19.656;2022-12-18T02:08:08;12.80;;;5.55;;
55718;SDS011;41623;46.104;19.656;2022-12-18T02:10:46;8.20;;;5.80;;
55718;SDS011;41623;46.104;19.656;2022-12-18T02:13:16;15.70;;;6.75;;
55718;SDS011;41623;46.104;19.656;2022-12-18T02:18:12;8.23;;;5.03;;
55718;SDS011;41623;46.104;19.656;2022-12-18T02:20:43;14.80;;;5.78;;
55718;SDS011;41623;46.104;19.656;2022-12-18T02:26:03;17.35;;;5.72;;
55718;SDS011;41623;46.104;19.656;2022-12-18T02:28:32;18.25;;;6.03;;
55718;SDS011;41623;46.104;19.656;2022-12-18T02:31:00;10.90;;;5.20;;
55718;SDS011;41623;46.104;19.656;2022-12-18T02:33:27;17.42;;;4.60;;
55718;SDS011;41623;46.104;19.656;2022-12-18T02:35:53;11.43;;;6.03;;
55718;SDS011;41623;46.104;19.656;2022-12-18T02:38:20;14.50;;;5.57;;
55718;SDS011;41623;46.104;19.656;2022-12-18T02:40:46;8.45;;;4.45;;
55718;SDS011;41623;46.104;19.656;2022-12-18T02:43:14;16.02;;;5.90;;
55718;SDS011;41623;46.104;19.656;2022-12-18T02:45:50;17.58;;;4.75;;
55718;SDS011;41623;46.104;19.656;2022-12-18T02:48:18;16.08;;;6.57;;
55718;SDS011;41623;46.104;19.656;2022-12-18T02:50:48;20.02;;;6.45;;
55718;SDS011;41623;46.104;19.656;2022-12-18T02:53:36;9.48;;;5.38;;
55718;SDS011;41623;46.104;19.656;2022-12-18T02:58:50;15.20;;;6.03;;
55718;SDS011;41623;46.104;19.656;2022-12-18T03:01:19;7.93;;;4.93;;
55718;SDS011;41623;46.104;19.656;2022-12-18T03:03:59;11.07;;;5.60;;
55718;SDS011;41623;46.104;19.656;2022-12-18T03:06:30;12.02;;;5.72;;
55718;SDS011;41623;46.104;19.656;2022-12-18T03:09:02;11.32;;;6.13;;
55718;SDS011;41623;46.104;19.656;2022-12-18T03:11:30;10.98;;;6.05;;
55718;SDS011;41623;46.104;19.656;2022-12-18T03:14:17;13.82;;;6.25;;
55718;SDS011;41623;46.104;19.656;2022-12-18T03:16:45;12.40;;;4.00;;
55718;SDS011;41623;46.104;19.656;2022-12-18T03:19:15;11.05;;;5.63;;
55718;SDS011;41623;46.104;19.656;2022-12-18T03:21:43;12.38;;;5.93;;
55718;SDS011;41623;46.104;19.656;2022-12-18T03:24:10;10.75;;;5.43;;
55718;SDS011;41623;46.104;19.656;2022-12-18T03:26:38;12.73;;;5.90;;
55718;SDS011;41623;46.104;19.656;2022-12-18T03:29:10;10.95;;;5.47;;
55718;SDS011;41623;46.104;19.656;2022-12-18T03:31:39;8.40;;;4.43;;
55718;SDS011;41623;46.104;19.656;2022-12-18T03:34:09;10.05;;;4.85;;
55718;SDS011;41623;46.104;19.656;2022-12-18T03:36:37;11.15;;;5.40;;
55718;SDS011;41623;46.104;19.656;2022-12-18T03:39:03;7.10;;;4.35;;
55718;SDS011;41623;46.104;19.656;2022-12-18T03:41:33;11.32;;;5.65;;
55718;SDS011;41623;46.104;19.656;2022-12-18T03:48:53;12.15;;;5.28;;
55718;SDS011;41623;46.104;19.656;2022-12-18T03:56:25;16.52;;;5.05;;
55718;SDS011;41623;46.104;19.656;2022-12-18T03:58:52;11.32;;;5.68;;
55718;SDS011;41623;46.104;19.656;2022-12-18T04:01:20;12.82;;;4.72;;
55718;SDS011;41623;46.104;19.656;2022-12-18T04:03:46;18.67;;;5.93;;
55718;SDS011;41623;46.104;19.656;2022-12-18T04:06:15;10.95;;;4.53;;
55718;SDS011;41623;46.104;19.656;2022-12-18T04:08:41;13.75;;;5.32;;
55718;SDS011;41623;46.104;19.656;2022-12-18T04:11:08;14.90;;;4.72;;
55718;SDS011;41623;46.104;19.656;2022-12-18T04:13:35;15.10;;;5.95;;
55718;SDS011;41623;46.104;19.656;2022-12-18T04:16:01;17.15;;;6.68;;
55718;SDS011;41623;46.104;19.656;2022-12-18T04:18:28;14.73;;;5.57;;
55718;SDS011;41623;46.104;19.656;2022-12-18T04:20:54;16.27;;;6.15;;
55718;SDS011;41623;46.104;19.656;2022-12-18T04:23:20;15.40;;;5.95;;
55718;SDS011;41623;46.104;19.656;2022-12-18T04:25:49;13.65;;;5.60;;
55718;SDS011;41623;46.104;19.656;2022-12-18T04:28:15;11.82;;;6.40;;
55718;SDS011;41623;46.104;19.656;2022-12-18T04:30:41;17.23;;;5.75;;
55718;SDS011;41623;46.104;19.656;2022-12-18T04:33:10;9.80;;;5.10;;
55718;SDS011;41623;46.104;19.656;2022-12-18T04:35:38;6.65;;;4.15;;
55718;SDS011;41623;46.104;19.656;2022-12-18T04:38:05;9.75;;;5.43;;
55718;SDS011;41623;46.104;19.656;2022-12-18T04:40:31;17.88;;;5.85;;
55718;SDS011;41623;46.104;19.656;2022-12-18T04:42:58;11.70;;;6.45;;
55718;SDS011;41623;46.104;19.656;2022-12-18T04:45:24;26.08;;;5.72;;
55718;SDS011;41623;46.104;19.656;2022-12-18T04:47:50;14.25;;;5.82;;
55718;SDS011;41623;46.104;19.656;2022-12-18T04:50:16;14.40;;;6.05;;
55718;SDS011;41623;46.104;19.656;2022-12-18T04:52:42;12.77;;;5.25;;
55718;SDS011;41623;46.104;19.656;2022-12-18T04:55:08;13.45;;;5.00;;
55718;SDS011;41623;46.104;19.656;2022-12-18T04:57:34;14.75;;;4.70;;
55718;SDS011;41623;46.104;19.656;2022-12-18T05:00:00;11.35;;;5.18;;
55718;SDS011;41623;46.104;19.656;2022-12-18T05:02:26;17.63;;;6.47;;
55718;SDS011;41623;46.104;19.656;2022-12-18T05:04:52;10.10;;;5.00;;
55718;SDS011;41623;46.104;19.656;2022-12-18T05:07:18;11.32;;;4.95;;
55718;SDS011;41623;46.104;19.656;2022-12-18T05:09:44;9.90;;;5.22;;
55718;SDS011;41623;46.104;19.656;2022-12-18T05:12:10;11.85;;;6.25;;
55718;SDS011;41623;46.104;19.656;2022-12-18T05:14:36;11.63;;;5.13;;
55718;SDS011;41623;46.104;19.656;2022-12-18T05:17:02;13.45;;;5.93;;
55718;SDS011;41623;46.104;19.656;2022-12-18T05:19:28;15.05;;;6.60;;
55718;SDS011;41623;46.104;19.656;2022-12-18T05:21:55;10.40;;;4.38;;
55718;SDS011;41623;46.104;19.656;2022-12-18T05:24:21;13.57;;;6.30;;
55718;SDS011;41623;46.104;19.656;2022-12-18T05:26:47;14.23;;;6.07;;
55718;SDS011;41623;46.104;19.656;2022-12-18T05:29:13;15.73;;;5.55;;
55718;SDS011;41623;46.104;19.656;2022-12-18T05:31:39;13.27;;;5.32;;
55718;SDS011;41623;46.104;19.656;2022-12-18T05:34:05;8.88;;;5.05;;
55718;SDS011;41623;46.104;19.656;2022-12-18T05:36:31;13.68;;;5.10;;
55718;SDS011;41623;46.104;19.656;2022-12-18T05:38:58;16.38;;;6.10;;
55718;SDS011;41623;46.104;19.656;2022-12-18T05:41:25;14.13;;;6.05;;
55718;SDS011;41623;46.104;19.656;2022-12-18T05:43:51;12.30;;;5.00;;
55718;SDS011;41623;46.104;19.656;2022-12-18T05:46:17;14.15;;;5.78;;
55718;SDS011;41623;46.104;19.656;2022-12-18T05:48:44;11.73;;;6.45;;
55718;SDS011;41623;46.104;19.656;2022-12-18T05:51:12;13.20;;;4.63;;
55718;SDS011;41623;46.104;19.656;2022-12-18T05:53:39;18.23;;;7.22;;
55718;SDS011;41623;46.104;19.656;2022-12-18T05:56:07;18.63;;;6.43;;
55718;SDS011;41623;46.104;19.656;2022-12-18T05:58:33;9.90;;;5.32;;
55718;SDS011;41623;46.104;19.656;2022-12-18T06:01:33;13.15;;;5.57;;
55718;SDS011;41623;46.104;19.656;2022-12-18T06:03:52;15.75;;;6.55;;
55718;SDS011;41623;46.104;19.656;2022-12-18T06:06:19;19.52;;;6.82;;
55718;SDS011;41623;46.104;19.656;2022-12-18T06:08:47;10.93;;;5.30;;
55718;SDS011;41623;46.104;19.656;2022-12-18T06:11:15;15.77;;;7.20;;
55718;SDS011;41623;46.104;19.656;2022-12-18T06:13:42;13.65;;;5.90;;
55718;SDS011;41623;46.104;19.656;2022-12-18T06:16:08;16.73;;;6.40;;
55718;SDS011;41623;46.104;19.656;2022-12-18T06:18:34;18.98;;;6.47;;
55718;SDS011;41623;46.104;19.656;2022-12-18T06:21:00;17.42;;;6.90;;
55718;SDS011;41623;46.104;19.656;2022-12-18T06:23:26;16.65;;;6.30;;
55718;SDS011;41623;46.104;19.656;2022-12-18T06:25:53;14.82;;;7.18;;
55718;SDS011;41623;46.104;19.656;2022-12-18T06:28:19;16.75;;;5.55;;
55718;SDS011;41623;46.104;19.656;2022-12-18T06:30:46;11.38;;;6.13;;
55718;SDS011;41623;46.104;19.656;2022-12-18T06:33:13;16.60;;;5.85;;
55718;SDS011;41623;46.104;19.656;2022-12-18T06:35:39;13.25;;;5.38;;
55718;SDS011;41623;46.104;19.656;2022-12-18T06:38:05;16.38;;;6.32;;
55718;SDS011;41623;46.104;19.656;2022-12-18T06:40:31;12.02;;;4.15;;
55718;SDS011;41623;46.104;19.656;2022-12-18T06:42:57;15.48;;;6.25;;
55718;SDS011;41623;46.104;19.656;2022-12-18T06:45:23;14.38;;;5.70;;
55718;SDS011;41623;46.104;19.656;2022-12-18T06:47:50;19.25;;;7.28;;
55718;SDS011;41623;46.104;19.656;2022-12-18T06:50:16;16.35;;;5.07;;
55718;SDS011;41623;46.104;19.656;2022-12-18T06:52:42;13.20;;;6.07;;
55718;SDS011;41623;46.104;19.656;2022-12-18T06:55:09;12.50;;;6.50;;
55718;SDS011;41623;46.104;19.656;2022-12-18T06:57:35;24.73;;;9.45;;
55718;SDS011;41623;46.104;19.656;2022-12-18T07:00:02;26.00;;;10.25;;
55718;SDS011;41623;46.104;19.656;2022-12-18T07:02:29;17.08;;;8.52;;
55718;SDS011;41623;46.104;19.656;2022-12-18T07:04:55;20.85;;;7.00;;
55718;SDS011;41623;46.104;19.656;2022-12-18T07:07:21;14.65;;;6.95;;
55718;SDS011;41623;46.104;19.656;2022-12-18T07:09:48;20.25;;;8.75;;
55718;SDS011;41623;46.104;19.656;2022-12-18T07:12:15;16.05;;;7.68;;
55718;SDS011;41623;46.104;19.656;2022-12-18T07:14:41;14.63;;;8.07;;
55718;SDS011;41623;46.104;19.656;2022-12-18T07:17:07;16.58;;;6.63;;
55718;SDS011;41623;46.104;19.656;2022-12-18T07:19:33;12.93;;;6.07;;
55718;SDS011;41623;46.104;19.656;2022-12-18T07:21:59;20.73;;;9.45;;
55718;SDS011;41623;46.104;19.656;2022-12-18T07:24:25;26.83;;;10.55;;
55718;SDS011;41623;46.104;19.656;2022-12-18T07:26:51;26.10;;;9.40;;
55718;SDS011;41623;46.104;19.656;2022-12-18T07:29:17;36.25;;;8.93;;
55718;SDS011;41623;46.104;19.656;2022-12-18T07:31:43;19.77;;;8.63;;
55718;SDS011;41623;46.104;19.656;2022-12-18T07:34:13;28.65;;;10.05;;
55718;SDS011;41623;46.104;19.656;2022-12-18T07:36:40;23.33;;;8.90;;
55718;SDS011;41623;46.104;19.656;2022-12-18T07:39:06;17.08;;;8.40;;
55718;SDS011;41623;46.104;19.656;2022-12-18T07:41:32;54.97;;;21.85;;
55718;SDS011;41623;46.104;19.656;2022-12-18T07:43:58;16.67;;;7.78;;
55718;SDS011;41623;46.104;19.656;2022-12-18T07:46:24;24.08;;;8.20;;
55718;SDS011;41623;46.104;19.656;2022-12-18T07:48:51;14.82;;;6.18;;
55718;SDS011;41623;46.104;19.656;2022-12-18T07:51:17;17.05;;;6.65;;
55718;SDS011;41623;46.104;19.656;2022-12-18T07:53:43;17.83;;;6.40;;
55718;SDS011;41623;46.104;19.656;2022-12-18T07:56:10;10.43;;;4.97;;
55718;SDS011;41623;46.104;19.656;2022-12-18T07:58:37;12.85;;;5.60;;
55718;SDS011;41623;46.104;19.656;2022-12-18T08:01:07;11.80;;;5.07;;
55718;SDS011;41623;46.104;19.656;2022-12-18T08:03:33;13.00;;;7.00;;
55718;SDS011;41623;46.104;19.656;2022-12-18T08:06:02;16.25;;;6.38;;
55718;SDS011;41623;46.104;19.656;2022-12-18T08:08:29;12.43;;;6.60;;
55718;SDS011;41623;46.104;19.656;2022-12-18T08:10:55;11.63;;;6.05;;
55718;SDS011;41623;46.104;19.656;2022-12-18T08:13:22;12.65;;;6.53;;
55718;SDS011;41623;46.104;19.656;2022-12-18T08:16:04;16.17;;;6.28;;
55718;SDS011;41623;46.104;19.656;2022-12-18T08:18:32;15.77;;;7.03;;
55718;SDS011;41623;46.104;19.656;2022-12-18T08:21:06;14.77;;;5.43;;
55718;SDS011;41623;46.104;19.656;2022-12-18T08:23:32;10.02;;;5.05;;
55718;SDS011;41623;46.104;19.656;2022-12-18T08:25:58;14.25;;;5.63;;
55718;SDS011;41623;46.104;19.656;2022-12-18T08:28:25;20.17;;;7.57;;
55718;SDS011;41623;46.104;19.656;2022-12-18T08:30:51;9.02;;;4.60;;
55718;SDS011;41623;46.104;19.656;2022-12-18T08:33:17;14.00;;;7.35;;
55718;SDS011;41623;46.104;19.656;2022-12-18T08:35:43;14.00;;;5.93;;
55718;SDS011;41623;46.104;19.656;2022-12-18T08:38:09;20.92;;;8.10;;
55718;SDS011;41623;46.104;19.656;2022-12-18T08:40:36;15.27;;;7.10;;
55718;SDS011;41623;46.104;19.656;2022-12-18T08:43:02;12.20;;;6.20;;
55718;SDS011;41623;46.104;19.656;2022-12-18T08:45:47;17.08;;;5.80;;
55718;SDS011;41623;46.104;19.656;2022-12-18T08:48:13;12.40;;;5.93;;
55718;SDS011;41623;46.104;19.656;2022-12-18T08:50:40;15.45;;;6.95;;
55718;SDS011;41623;46.104;19.656;2022-12-18T08:53:06;20.67;;;7.20;;
55718;SDS011;41623;46.104;19.656;2022-12-18T08:55:32;13.93;;;5.97;;
55718;SDS011;41623;46.104;19.656;2022-12-18T08:57:58;11.10;;;5.53;;
55718;SDS011;41623;46.104;19.656;2022-12-18T09:00:24;14.95;;;6.68;;
55718;SDS011;41623;46.104;19.656;2022-12-18T09:02:50;13.95;;;7.10;;
55718;SDS011;41623;46.104;19.656;2022-12-18T09:05:16;24.85;;;8.60;;
55718;SDS011;41623;46.104;19.656;2022-12-18T09:07:42;18.85;;;7.70;;
55718;SDS011;41623;46.104;19.656;2022-12-18T09:10:08;18.02;;;6.07;;
55718;SDS011;41623;46.104;19.656;2022-12-18T09:12:35;19.73;;;6.63;;
55718;SDS011;41623;46.104;19.656;2022-12-18T09:15:01;16.15;;;6.45;;
55718;SDS011;41623;46.104;19.656;2022-12-18T09:17:27;17.52;;;6.95;;
55718;SDS011;41623;46.104;19.656;2022-12-18T09:19:53;20.92;;;8.23;;
55718;SDS011;41623;46.104;19.656;2022-12-18T09:22:19;19.92;;;6.95;;
55718;SDS011;41623;46.104;19.656;2022-12-18T09:24:45;15.15;;;7.22;;
55718;SDS011;41623;46.104;19.656;2022-12-18T09:27:11;17.95;;;6.93;;
55718;SDS011;41623;46.104;19.656;2022-12-18T09:29:37;15.18;;;6.28;;
55718;SDS011;41623;46.104;19.656;2022-12-18T09:32:03;19.65;;;8.05;;
55718;SDS011;41623;46.104;19.656;2022-12-18T09:34:29;15.07;;;7.60;;
55718;SDS011;41623;46.104;19.656;2022-12-18T09:36:55;19.65;;;7.03;;
55718;SDS011;41623;46.104;19.656;2022-12-18T09:39:21;16.02;;;6.85;;
55718;SDS011;41623;46.104;19.656;2022-12-18T09:41:55;12.15;;;5.72;;
55718;SDS011;41623;46.104;19.656;2022-12-18T09:49:21;12.88;;;6.35;;
55718;SDS011;41623;46.104;19.656;2022-12-18T09:51:50;16.88;;;6.78;;
55718;SDS011;41623;46.104;19.656;2022-12-18T09:54:20;13.13;;;7.13;;
55718;SDS011;41623;46.104;19.656;2022-12-18T09:56:47;19.55;;;6.97;;
55718;SDS011;41623;46.104;19.656;2022-12-18T10:01:58;20.35;;;8.20;;
55718;SDS011;41623;46.104;19.656;2022-12-18T10:04:24;18.40;;;8.10;;
55718;SDS011;41623;46.104;19.656;2022-12-18T10:06:57;14.07;;;6.43;;
55718;SDS011;41623;46.104;19.656;2022-12-18T10:09:37;15.18;;;5.65;;
55718;SDS011;41623;46.104;19.656;2022-12-18T10:12:08;10.18;;;4.60;;
55718;SDS011;41623;46.104;19.656;2022-12-18T10:14:51;14.50;;;6.82;;
55718;SDS011;41623;46.104;19.656;2022-12-18T10:19:56;14.25;;;6.20;;
55718;SDS011;41623;46.104;19.656;2022-12-18T10:22:48;14.02;;;7.60;;
55718;SDS011;41623;46.104;19.656;2022-12-18T10:25:24;13.98;;;6.88;;
55718;SDS011;41623;46.104;19.656;2022-12-18T10:30:18;7.38;;;4.68;;
55718;SDS011;41623;46.104;19.656;2022-12-18T10:32:44;19.83;;;6.72;;
55718;SDS011;41623;46.104;19.656;2022-12-18T10:35:24;20.35;;;9.02;;
55718;SDS011;41623;46.104;19.656;2022-12-18T10:43:26;9.98;;;4.82;;
55718;SDS011;41623;46.104;19.656;2022-12-18T10:46:00;11.73;;;4.63;;
55718;SDS011;41623;46.104;19.656;2022-12-18T10:48:26;18.58;;;6.20;;
55718;SDS011;41623;46.104;19.656;2022-12-18T10:50:53;13.43;;;5.97;;
55718;SDS011;41623;46.104;19.656;2022-12-18T10:53:27;18.98;;;6.20;;
55718;SDS011;41623;46.104;19.656;2022-12-18T10:55:54;9.23;;;5.10;;
55718;SDS011;41623;46.104;19.656;2022-12-18T10:58:39;15.95;;;5.13;;
55718;SDS011;41623;46.104;19.656;2022-12-18T11:01:10;7.07;;;4.30;;
55718;SDS011;41623;46.104;19.656;2022-12-18T11:03:46;12.23;;;4.90;;
55718;SDS011;41623;46.104;19.656;2022-12-18T11:06:14;17.77;;;6.63;;
55718;SDS011;41623;46.104;19.656;2022-12-18T11:08:41;13.80;;;5.47;;
55718;SDS011;41623;46.104;19.656;2022-12-18T11:11:15;11.90;;;5.15;;
55718;SDS011;41623;46.104;19.656;2022-12-18T11:13:41;16.25;;;6.15;;
55718;SDS011;41623;46.104;19.656;2022-12-18T11:16:19;9.95;;;4.88;;
55718;SDS011;41623;46.104;19.656;2022-12-18T11:18:45;23.55;;;6.00;;
55718;SDS011;41623;46.104;19.656;2022-12-18T11:21:11;17.02;;;5.78;;
55718;SDS011;41623;46.104;19.656;2022-12-18T11:23:45;13.65;;;7.15;;
55718;SDS011;41623;46.104;19.656;2022-12-18T11:26:12;8.93;;;5.13;;
55718;SDS011;41623;46.104;19.656;2022-12-18T11:33:34;15.90;;;5.35;;
55718;SDS011;41623;46.104;19.656;2022-12-18T11:36:02;12.93;;;4.85;;
55718;SDS011;41623;46.104;19.656;2022-12-18T11:40:56;9.35;;;3.22;;
55718;SDS011;41623;46.104;19.656;2022-12-18T11:43:28;12.57;;;5.53;;
55718;SDS011;41623;46.104;19.656;2022-12-18T11:46:07;16.27;;;7.13;;
55718;SDS011;41623;46.104;19.656;2022-12-18T11:49:18;15.35;;;5.55;;
55718;SDS011;41623;46.104;19.656;2022-12-18T11:54:23;6.85;;;3.72;;
55718;SDS011;41623;46.104;19.656;2022-12-18T11:56:51;12.10;;;5.13;;
55718;SDS011;41623;46.104;19.656;2022-12-18T12:02:02;13.85;;;5.90;;
55718;SDS011;41623;46.104;19.656;2022-12-18T12:09:37;12.07;;;4.40;;
55718;SDS011;41623;46.104;19.656;2022-12-18T12:14:37;12.57;;;6.53;;
55718;SDS011;41623;46.104;19.656;2022-12-18T12:30:11;22.42;;;8.27;;
55718;SDS011;41623;46.104;19.656;2022-12-18T12:40:23;10.13;;;4.80;;
55718;SDS011;41623;46.104;19.656;2022-12-18T12:43:01;14.82;;;4.82;;
55718;SDS011;41623;46.104;19.656;2022-12-18T12:48:05;12.85;;;4.88;;
55718;SDS011;41623;46.104;19.656;2022-12-18T12:50:33;6.80;;;3.45;;
55718;SDS011;41623;46.104;19.656;2022-12-18T12:52:59;9.90;;;5.00;;
55718;SDS011;41623;46.104;19.656;2022-12-18T12:55:27;18.15;;;7.07;;
55718;SDS011;41623;46.104;19.656;2022-12-18T13:00:20;31.00;;;9.38;;
55718;SDS011;41623;46.104;19.656;2022-12-18T13:02:54;16.45;;;5.97;;
55718;SDS011;41623;46.104;19.656;2022-12-18T13:05:27;11.48;;;4.75;;
55718;SDS011;41623;46.104;19.656;2022-12-18T13:08:06;10.77;;;4.87;;
55718;SDS011;41623;46.104;19.656;2022-12-18T13:10:36;14.15;;;4.55;;
55718;SDS011;41623;46.104;19.656;2022-12-18T13:20:46;2.65;;;1.33;;
55718;SDS011;41623;46.104;19.656;2022-12-18T13:28:22;9.20;;;3.45;;
55718;SDS011;41623;46.104;19.656;2022-12-18T13:30:56;4.47;;;1.95;;
55718;SDS011;41623;46.104;19.656;2022-12-18T13:35:55;8.75;;;3.92;;
55718;SDS011;41623;46.104;19.656;2022-12-18T13:38:33;3.40;;;2.25;;
55718;SDS011;41623;46.104;19.656;2022-12-18T13:46:02;3.53;;;2.33;;
55718;SDS011;41623;46.104;19.656;2022-12-18T13:48:30;7.40;;;2.75;;
55718;SDS011;41623;46.104;19.656;2022-12-18T13:51:01;6.50;;;3.08;;
55718;SDS011;41623;46.104;19.656;2022-12-18T13:54:02;12.25;;;4.63;;
55718;SDS011;41623;46.104;19.656;2022-12-18T13:56:22;5.38;;;3.17;;
55718;SDS011;41623;46.104;19.656;2022-12-18T13:59:05;6.07;;;2.92;;
55718;SDS011;41623;46.104;19.656;2022-12-18T14:01:34;6.45;;;3.42;;
55718;SDS011;41623;46.104;19.656;2022-12-18T14:06:57;4.45;;;2.03;;
55718;SDS011;41623;46.104;19.656;2022-12-18T14:09:25;8.30;;;4.25;;
55718;SDS011;41623;46.104;19.656;2022-12-18T14:11:52;11.95;;;3.38;;
55718;SDS011;41623;46.104;19.656;2022-12-18T14:14:38;7.13;;;2.78;;
55718;SDS011;41623;46.104;19.656;2022-12-18T14:17:08;5.65;;;2.60;;
55718;SDS011;41623;46.104;19.656;2022-12-18T14:19:35;5.28;;;3.40;;
55718;SDS011;41623;46.104;19.656;2022-12-18T14:22:01;5.97;;;2.70;;
55718;SDS011;41623;46.104;19.656;2022-12-18T14:24:27;9.57;;;4.35;;
55718;SDS011;41623;46.104;19.656;2022-12-18T14:26:56;4.75;;;2.90;;
55718;SDS011;41623;46.104;19.656;2022-12-18T14:29:38;5.43;;;2.17;;
55718;SDS011;41623;46.104;19.656;2022-12-18T14:32:16;5.95;;;3.33;;
55718;SDS011;41623;46.104;19.656;2022-12-18T14:35:12;3.90;;;2.45;;
55718;SDS011;41623;46.104;19.656;2022-12-18T14:37:32;6.80;;;2.97;;
55718;SDS011;41623;46.104;19.656;2022-12-18T14:40:04;6.50;;;3.70;;
55718;SDS011;41623;46.104;19.656;2022-12-18T14:42:30;6.28;;;2.88;;
55718;SDS011;41623;46.104;19.656;2022-12-18T14:47:42;4.55;;;2.80;;
55718;SDS011;41623;46.104;19.656;2022-12-18T14:50:12;7.63;;;3.05;;
55718;SDS011;41623;46.104;19.656;2022-12-18T14:52:39;15.32;;;3.80;;
55718;SDS011;41623;46.104;19.656;2022-12-18T14:55:05;7.82;;;3.83;;
55718;SDS011;41623;46.104;19.656;2022-12-18T14:57:35;23.75;;;8.27;;
55718;SDS011;41623;46.104;19.656;2022-12-18T15:00:06;24.73;;;8.20;;
55718;SDS011;41623;46.104;19.656;2022-12-18T15:02:34;23.38;;;9.70;;
55718;SDS011;41623;46.104;19.656;2022-12-18T15:07:43;28.08;;;12.50;;
55718;SDS011;41623;46.104;19.656;2022-12-18T15:10:10;38.05;;;12.93;;
55718;SDS011;41623;46.104;19.656;2022-12-18T15:12:42;34.00;;;12.73;;
55718;SDS011;41623;46.104;19.656;2022-12-18T15:17:57;36.70;;;12.93;;
55718;SDS011;41623;46.104;19.656;2022-12-18T15:20:23;38.90;;;15.40;;
55718;SDS011;41623;46.104;19.656;2022-12-18T15:22:49;23.15;;;12.82;;
55718;SDS011;41623;46.104;19.656;2022-12-18T15:25:49;40.92;;;15.13;;
55718;SDS011;41623;46.104;19.656;2022-12-18T15:28:18;45.50;;;16.38;;
55718;SDS011;41623;46.104;19.656;2022-12-18T15:30:58;46.38;;;16.80;;
55718;SDS011;41623;46.104;19.656;2022-12-18T15:33:25;32.67;;;13.75;;
55718;SDS011;41623;46.104;19.656;2022-12-18T15:35:56;42.72;;;15.02;;
55718;SDS011;41623;46.104;19.656;2022-12-18T15:38:22;42.92;;;13.93;;
55718;SDS011;41623;46.104;19.656;2022-12-18T15:40:48;26.77;;;13.43;;
55718;SDS011;41623;46.104;19.656;2022-12-18T15:43:15;27.90;;;11.45;;
55718;SDS011;41623;46.104;19.656;2022-12-18T15:46:01;24.15;;;10.02;;
55718;SDS011;41623;46.104;19.656;2022-12-18T15:48:27;21.80;;;9.63;;
55718;SDS011;41623;46.104;19.656;2022-12-18T15:50:54;13.70;;;7.18;;
55718;SDS011;41623;46.104;19.656;2022-12-18T15:53:22;30.65;;;10.90;;
55718;SDS011;41623;46.104;19.656;2022-12-18T15:55:48;30.08;;;9.07;;
55718;SDS011;41623;46.104;19.656;2022-12-18T15:58:32;22.13;;;8.40;;
55718;SDS011;41623;46.104;19.656;2022-12-18T16:00:58;32.00;;;9.95;;
55718;SDS011;41623;46.104;19.656;2022-12-18T16:03:25;33.42;;;12.05;;
55718;SDS011;41623;46.104;19.656;2022-12-18T16:05:52;27.13;;;11.10;;
55718;SDS011;41623;46.104;19.656;2022-12-18T16:08:18;40.28;;;11.45;;
55718;SDS011;41623;46.104;19.656;2022-12-18T16:10:44;23.90;;;9.95;;
55718;SDS011;41623;46.104;19.656;2022-12-18T16:13:11;27.85;;;8.73;;
55718;SDS011;41623;46.104;19.656;2022-12-18T16:15:37;17.05;;;8.15;;
55718;SDS011;41623;46.104;19.656;2022-12-18T16:18:03;18.08;;;7.40;;
55718;SDS011;41623;46.104;19.656;2022-12-18T16:20:30;18.25;;;7.15;;
55718;SDS011;41623;46.104;19.656;2022-12-18T16:22:56;22.17;;;9.52;;
55718;SDS011;41623;46.104;19.656;2022-12-18T16:25:25;41.72;;;11.38;;
55718;SDS011;41623;46.104;19.656;2022-12-18T16:27:52;28.58;;;8.32;;